EA1DZR-4
43.31.48N 005.40.00W
IN73EM aprs.fi
zuletzt gehoert:
2022-10-03T10:01:52Z
zuerst gehoert:
2022-06-05T12:27:02Z

APRS Gijón/Xixón [IN73EM], 2 Stunde(n), EA1DZR-4 [12:30:35, 0s].
EA1FFA 43.31.53N 005.40.64WIN73DM 0.978km 299°WNW10:01:28ZMMDVM MMDVM HS Hat 438.8000/438.8000 CC1(3EA1FFA-1)
EA1IEJ 43.31.81N 005.40.64WIN73DM 1.308km 319°NW10:01:09ZMMDVM DMO 222.3400/222.3400 CC1(3EA1IEJ-11)
MMDVM MMDVM HS Hat 438.8500/438.8500 CC6(2EA1IEJ-1)
EA1JBD 43.32.24N 005.38.83WIN73EM 2.363km 42°NE10:30:19ZMMDVM MMDVM HS Hat 431.0375/431.0375 CC1
EA4ACU 43.29.56N 005.38.92WIN73EL 3.493km 156°SSE10:01:36ZMMDVM MMDVM HS Hat 432.7000/432.7000 CC1(3EA4ACU-1)
EA1FPN 43.32.39N 005.42.17WIN73DM 3.559km 305°NW10:01:10ZMMDVM MMDVM HS Hat 439.8750/439.8750 CC1
EB1TK 43.32.22N 005.42.32WIN73DM 3.572km 299°WNW10:30:17ZWind 089°/010kn, Böen bis 016kn, Temp 18.89c, Regen 0.0mm, letzte 24h 0.0mm, seit 0h 0.0mm, Baro 1025.4h, Hum: 87%(3EB1TK-13)
LEEL 43.32.98N 005.41.71WIN73DN 3.895km 324°NW10:30:02ZHelipuerto de El Musel: LEAS 030930Z 10007KT 070V150 9999 FEW016 18/15 Q1022 NOSIG=
EB1GEM 43.30.00N 005.36.07WIN73EM 5.788km 114°ESE10:16:26ZWX3in1Plus2.0 U=13.3V,T=??.?C/??.?F(3EB1GEM-3)
ED1ZAE 43.27.97N 005.40.54WIN73DL 6.174km 187°S10:22:14ZWIDE3-3 ESAS3-3 IN73DL WWW.EA1URG.ORG(3ED1ZAE-3)
2m Voice 145.5875 -0.600 Mhz(2ED1ZAE-C)
ED1ZAS 43.27.52N 005.40.17WIN73DL 6.968km 182°S10:30:07ZRD985 438.2250/430.6250 CC1
EA1IPU 43.26.21N 005.46.62WIN73CK 12.939km 224°SW10:01:07ZMMDVM MMDVM HS Hat 439.8000/439.8000 CC1(3EA1IPU-1)
EA1JW 43.31.35N 005.28.83WIN73GM 15.008km 89°E10:30:29ZMMDVM MMDVM HS Hat 436.5000/436.5000 CC1(3EA1JW-3)
EA1ABW 43.24.77N 005.47.77WIN73CJ 15.965km 221°SW10:30:19ZMMDVM MMDVM HS Hat 439.8250/439.8250 CC1(3EA1ABW-2)
MMDVM MMDVM HS Hat 439.8250/439.8250 CC1(2EA1ABW-1)
LEGM 43.26.15N 005.49.84WIN73CK 16.289km 234°SW10:30:02ZHelipuerto de La Morgal (123.500MHz): LEAS 030930Z 10007KT 070V150 9999 FEW016 18/15 Q1022 NOSIG=
LEMR 43.25.83N 005.49.60WIN73CK 16.409km 232°SW10:30:02ZAerodromo de la Morgal (123.500MHz): LEAS 030930Z 10007KT 070V150 9999 FEW016 18/15 Q1022 NOSIG=
EA1FLQ 43.22.00N 005.36.35WIN73EI 17.893km 164°SSE10:01:35ZMMDVM DVMega 430.9750/430.9750 CC1
EA1FHR 43.28.72N 005.26.41WIN73GL 18.863km 105°ESE10:00:58ZMMDVM MMDVM HS Hat 439.1500/439.1500 CC1
EA1HWD 43.28.96N 005.26.30WIN73GL 18.912km 103°ESE10:01:30ZMMDVM MMDVM HS Hat 434.2500/434.2500 CC1
EA1AHA 43.32.72N 005.54.38WIN73BN 19.501km 278°W10:02:58ZWind 180°/003kn, Böen bis 004kn, Temp 18.89c, Regen 0.0mm, letzte 24h 0.0mm, seit 0h 0.0mm, Baro 1023.9h, Hum: 76%(3EA1AHA-13)
LEHU 43.22.63N 005.49.57WIN73CJ 20.578km 219°SW10:30:02ZHelipuerto del HUCA: LEAS 030930Z 10007KT 070V150 9999 FEW016 18/15 Q1022 NOSIG=
ED1ZAY 43.29.47N 005.56.54WIN73AL 22.493km 262°W10:30:08ZRD625 438.3000/430.7000 CC1
ED1ZAU 43.23.04N 005.52.75WIN73BJ 22.982km 228°SW10:30:08ZRD625 438.5000/430.9000 CC1
EA1JBU 43.21.85N 005.51.13WIN73BI 23.032km 221°SW10:00:06ZEA1JBU(3EA1JBU-1)
33D00 43.21.63N 005.51.13WIN73BI 23.334km 220°SW10:01:41Z33-D-00 Protección Civil REMER / Delegación del Gobierno en Asturias
EA1YR 43.22.10N 005.51.86WIN73BI 23.329km 223°SW09:33:41ZJesus(3EA1YR-1)
EA1JAY 43.21.54N 005.51.34WIN73BI 23.653km 220°SW10:30:03ZEA1JAY(3EA1JAY-2)
434.525MHz Nodo TETRA DMO(2EA1JAY-4)
EA1HJA 43.21.47N 005.52.09WIN73BI 24.399km 222°SW10:19:58Z IN73FL WX3IN1+ 2.0 - V=13.2V,TX TEMP=32.3C(3EA1HJA-2)
IN73FL WX3IN1+ 2.0 - V=13.5V,TX TEMP=43.8C(2EA1HJA)
EA1L 43.20.37N 005.51.13WIN73BI 25.156km 217°SW10:30:07Zea1l@ure.es V=13.0V
Wind 005°/002kn, Böen bis 006kn, Temp 20.00c, Regen 0.0mm, letzte 24h 0.0mm, seit 0h 0.0mm, Baro 1020.8h, Hum: 85%(2EA1L-13)
EA1HWX 43.19.28N 005.50.98WIN73BH 26.710km 214°SW10:01:45ZDMO - UHF 439.7250/431.0000 CC11(3EA1HWX-2)
MMDVM DMO 222.3400/222.3400 CC1(2EA1HWX-10)
EA1AQK 43.16.49N 005.35.99WIN73EG 27.926km 169°S10:30:24ZMMDVM MMDVM HS Hat 439.8500/439.8500 CC1(3EA1AQK-1)
EA1JBE 43.30.90N 005.16.15WIN73IM 32.055km 91°E10:30:03ZMMDVM MMDVM HS Hat 439.8500/439.8500 CC1(3EA1JBE-13)
MAIN QTH http://qrz.com/db/ea1jbe(2EA1JBE-1)
EA1IMW 43.14.36N 005.46.93WIN73CF 32.726km 197°SSW10:01:56ZGRUPO RADIO GALENA (GRG) 430.4500/430.4500 CC1(3EA1IMW-1)
EB1DGC 43.12.60N 005.45.59WIN73CF 35.440km 192°SSW10:01:13ZMMDVM MMDVM HS Hat 433.4500/433.4500 CC1
EA1JBL 43.12.28N 005.47.42WIN73CE 36.598km 196°SSW10:01:36ZMMDVM DVMega 435.3000/435.3000 CC1
EA1HWA 43.12.00N 005.47.40WIN73CE 37.104km 196°SSW10:00:53ZMMDVM MMDVM HS Hat 433.4500/433.4500 CC1
EA1DZR 43.12.88N 005.24.00WIN73HF 40.332km 148°SSE10:10:50ZMMDVM DVMega 431.1000/431.1000 CC1(3EA1DZR-1)
MMDVM MMDVM HS Hat 432.2000/432.2000 CC2(2EA1DZR-2)
MMDVM DV ADER 434.3500/434.3500 CC1(2EA1DZR-4)
440 MMDVM Voice 433.10000MHz +0.0000MHz, APRS for DMRGateway(2EA1DZR-D)
EA1RCG 43.09.45N 005.49.78WIN73CD 42.544km 198°SSW10:00:47ZGRUPO RADIO GALENA (GRG) 430.4500/430.4500 CC1(3EA1RCG-3)
ED1ZAD 43.07.90N 005.38.52WIN73ED 43.364km 177°S10:26:57ZED1ZAD-3 APRS Digi/Igate(3ED1ZAD-3)
EC1KV 43.34.01N 006.16.01WIN63UN 48.627km 276°W10:12:20Z VOLT.=13.7 V - TEMP.=??.? C(3EC1KV-1)

aprs.pl 5.0.011w DL3EL © 2006-2021 [5796430]